Calvi-Sainte-Catherine Airport

LFKC | CLY

Calvi/Sainte-Catherine , Corsica , France

Sunday, June 7th, 2020 | 07:56

Weather

LFKC 070530Z AUTO VRB02KT 9999 FEW084 19/14 Q1007 BECMG 23012KT

Charts

No Charts Available

Gates

30 Available

Runways

1 Available

Active ATC

Events -Coming Soon-

1 Events Coming Up Soon

Next event:
LFKC Flyout